createdAt,value
2017-08-02T00:01:39.215Z,8.27
2017-08-02T00:04:06.877Z,6.80
2017-08-02T00:06:34.480Z,7.20
2017-08-02T00:09:02.053Z,11.70
2017-08-02T00:11:30.721Z,8.73
2017-08-02T00:13:58.297Z,7.53
2017-08-02T00:16:26.632Z,8.97
2017-08-02T00:18:54.225Z,6.90
2017-08-02T00:21:21.918Z,7.63
2017-08-02T00:23:49.528Z,7.87
2017-08-02T00:26:17.124Z,8.97
2017-08-02T00:28:45.145Z,9.00
2017-08-02T00:31:12.725Z,10.10
2017-08-02T00:33:40.299Z,12.10
2017-08-02T00:36:08.634Z,13.90
2017-08-02T00:38:36.244Z,10.00
2017-08-02T00:41:03.837Z,9.97
2017-08-02T00:43:31.400Z,10.00
2017-08-02T00:45:59.015Z,11.03
2017-08-02T00:48:26.574Z,10.27
2017-08-02T00:50:55.024Z,9.70
2017-08-02T00:53:22.588Z,9.77
2017-08-02T00:55:50.434Z,9.00
2017-08-02T00:58:18.008Z,9.50
2017-08-02T01:00:45.638Z,9.17
2017-08-02T01:03:13.226Z,9.87
2017-08-02T01:05:40.835Z,10.00
2017-08-02T01:08:08.426Z,11.80
2017-08-02T01:10:35.989Z,10.33
2017-08-02T01:13:03.562Z,12.23
2017-08-02T01:15:31.113Z,9.67
2017-08-02T01:17:58.717Z,9.90
2017-08-02T01:20:27.062Z,9.63
2017-08-02T01:22:54.922Z,11.00
2017-08-02T01:25:22.509Z,10.30
2017-08-02T01:27:50.876Z,9.80
2017-08-02T01:30:18.470Z,10.40
2017-08-02T01:32:46.067Z,9.27
2017-08-02T01:35:13.643Z,11.83
2017-08-02T01:37:41.219Z,10.07
2017-08-02T01:40:08.790Z,9.50
2017-08-02T01:42:36.469Z,8.63
2017-08-02T01:45:04.057Z,11.27
2017-08-02T01:47:31.665Z,9.40
2017-08-02T01:50:00.009Z,9.77
2017-08-02T01:52:27.575Z,9.23
2017-08-02T01:54:55.164Z,8.77
2017-08-02T01:57:22.769Z,9.07
2017-08-02T01:59:50.384Z,8.60
2017-08-02T02:02:17.991Z,7.83
2017-08-02T02:04:45.564Z,10.80
2017-08-02T02:07:13.146Z,11.57
2017-08-02T02:09:41.577Z,10.20
2017-08-02T02:12:09.180Z,9.30
2017-08-02T02:14:36.844Z,10.30
2017-08-02T02:17:05.198Z,10.40
2017-08-02T02:19:32.770Z,11.03
2017-08-02T02:22:00.344Z,10.20
2017-08-02T02:24:28.675Z,10.50
2017-08-02T02:26:56.561Z,11.53
2017-08-02T02:29:24.149Z,13.23
2017-08-02T02:31:53.256Z,11.60
2017-08-02T02:34:21.068Z,11.40
2017-08-02T02:36:48.687Z,11.70
2017-08-02T02:39:16.297Z,12.47
2017-08-02T02:41:43.879Z,16.67
2017-08-02T02:44:11.465Z,17.70
2017-08-02T02:46:39.019Z,15.40
2017-08-02T02:49:06.608Z,14.93
2017-08-02T02:51:34.171Z,20.80
2017-08-02T02:54:02.047Z,13.33
2017-08-02T02:56:29.626Z,12.27
2017-08-02T02:58:57.214Z,10.73
2017-08-02T03:01:25.564Z,12.70
2017-08-02T03:03:53.147Z,12.47
2017-08-02T03:06:21.517Z,11.67
2017-08-02T03:08:49.085Z,14.63
2017-08-02T03:11:16.668Z,12.37
2017-08-02T03:13:44.247Z,15.13
2017-08-02T03:16:12.137Z,11.80
2017-08-02T03:18:39.713Z,12.03
2017-08-02T03:21:07.301Z,9.40
2017-08-02T03:23:34.897Z,10.30
2017-08-02T03:26:02.466Z,12.70
2017-08-02T03:28:30.065Z,8.40
2017-08-02T03:30:58.385Z,9.13
2017-08-02T03:33:25.967Z,9.13
2017-08-02T03:35:53.546Z,8.60
2017-08-02T03:38:21.902Z,7.77
2017-08-02T03:40:49.498Z,8.47
2017-08-02T03:43:17.857Z,10.50
2017-08-02T03:45:45.425Z,10.17
2017-08-02T03:48:14.084Z,9.00
2017-08-02T03:50:41.698Z,9.10
2017-08-02T03:53:09.264Z,8.87
2017-08-02T03:55:36.881Z,8.70
2017-08-02T03:58:04.447Z,11.97
2017-08-02T04:00:32.852Z,9.07
2017-08-02T04:03:00.447Z,8.50
2017-08-02T04:05:28.044Z,8.80
2017-08-02T04:07:55.650Z,8.03
2017-08-02T04:10:23.250Z,9.33
2017-08-02T04:12:50.837Z,10.73
2017-08-02T04:15:18.812Z,9.70
2017-08-02T04:17:46.379Z,9.03
2017-08-02T04:20:13.939Z,8.63
2017-08-02T04:22:41.530Z,9.13
2017-08-02T04:25:09.117Z,9.13
2017-08-02T04:27:36.701Z,8.50
2017-08-02T04:30:04.278Z,8.17
2017-08-02T04:32:31.917Z,9.43
2017-08-02T04:34:59.517Z,9.13
2017-08-02T04:37:27.232Z,8.23
2017-08-02T04:39:55.564Z,7.63
2017-08-02T04:42:23.133Z,8.10
2017-08-02T04:44:50.703Z,10.17
2017-08-02T04:47:18.660Z,8.13
2017-08-02T04:49:46.213Z,9.00
2017-08-02T04:52:13.771Z,8.87
2017-08-02T04:54:41.342Z,8.80
2017-08-02T04:57:08.916Z,9.47
2017-08-02T04:59:36.542Z,9.03
2017-08-02T05:02:04.112Z,8.33
2017-08-02T05:04:31.697Z,8.60
2017-08-02T05:07:00.023Z,9.03
2017-08-02T05:09:27.917Z,9.07
2017-08-02T05:11:55.589Z,9.30
2017-08-02T05:14:23.167Z,10.60
2017-08-02T05:16:50.762Z,10.10
2017-08-02T05:19:18.329Z,8.13
2017-08-02T05:21:45.913Z,8.20
2017-08-02T05:24:13.479Z,8.47
2017-08-02T05:26:41.067Z,10.33
2017-08-02T05:29:08.629Z,8.97
2017-08-02T05:31:36.993Z,9.37
2017-08-02T05:34:04.561Z,8.23
2017-08-02T05:36:33.209Z,8.33
2017-08-02T05:39:00.804Z,7.80
2017-08-02T05:41:28.381Z,7.57
2017-08-02T05:43:55.963Z,6.43
2017-08-02T05:46:23.520Z,7.90
2017-08-02T05:48:51.123Z,8.33
2017-08-02T05:51:18.704Z,8.53
2017-08-02T05:53:46.276Z,6.10
2017-08-02T05:56:13.856Z,6.40
2017-08-02T05:58:41.445Z,6.47
2017-08-02T06:01:09.006Z,6.07
2017-08-02T06:03:36.869Z,5.40
2017-08-02T06:06:04.426Z,5.30
2017-08-02T06:08:31.998Z,6.00
2017-08-02T06:10:59.587Z,5.83
2017-08-02T06:13:27.927Z,5.10
2017-08-02T06:15:55.517Z,4.80
2017-08-02T06:18:23.851Z,4.93
2017-08-02T06:20:51.464Z,5.50
2017-08-02T06:23:19.061Z,5.03
2017-08-02T06:25:46.648Z,4.73
2017-08-02T06:28:14.236Z,5.17
2017-08-02T06:30:42.974Z,5.10
2017-08-02T06:33:10.548Z,6.20
2017-08-02T06:35:38.120Z,5.50
2017-08-02T06:38:06.458Z,5.40
2017-08-02T06:40:34.012Z,5.40
2017-08-02T06:43:01.581Z,5.30
2017-08-02T06:45:29.142Z,5.67
2017-08-02T06:47:56.723Z,7.07
2017-08-02T06:50:24.287Z,6.13
2017-08-02T06:52:52.248Z,6.30
2017-08-02T06:55:19.817Z,5.60
2017-08-02T06:57:47.374Z,6.50
2017-08-02T07:00:14.963Z,5.73
2017-08-02T07:02:42.549Z,6.60
2017-08-02T07:05:10.121Z,6.50
2017-08-02T07:07:37.678Z,6.07
2017-08-02T07:10:05.233Z,5.23
2017-08-02T07:12:32.788Z,6.00
2017-08-02T07:15:00.375Z,5.30
2017-08-02T07:17:27.931Z,5.57
2017-08-02T07:19:55.782Z,6.30
2017-08-02T07:22:23.348Z,5.97
2017-08-02T07:24:50.921Z,5.90
2017-08-02T07:27:18.497Z,5.73
2017-08-02T07:29:46.055Z,6.50
2017-08-02T07:32:14.401Z,6.13
2017-08-02T07:34:41.970Z,8.00
2017-08-02T07:37:09.541Z,6.20
2017-08-02T07:39:37.110Z,6.13
2017-08-02T07:42:05.455Z,5.90
2017-08-02T07:44:33.007Z,6.10
2017-08-02T07:47:00.863Z,5.40
2017-08-02T07:49:28.429Z,6.37
2017-08-02T07:51:56.006Z,6.33
2017-08-02T07:54:23.575Z,6.30
2017-08-02T07:56:51.160Z,5.90
2017-08-02T07:59:18.749Z,6.33
2017-08-02T08:01:46.328Z,8.30
2017-08-02T08:04:13.915Z,6.10
2017-08-02T08:06:42.258Z,6.07
2017-08-02T08:09:09.840Z,6.03
2017-08-02T08:11:37.401Z,5.80
2017-08-02T08:14:05.251Z,6.60
2017-08-02T08:16:32.809Z,5.60
2017-08-02T08:19:00.364Z,5.27
2017-08-02T08:21:27.943Z,4.73
2017-08-02T08:23:55.501Z,6.43
2017-08-02T08:26:23.064Z,5.30
2017-08-02T08:28:50.618Z,5.70
2017-08-02T08:31:18.249Z,5.57
2017-08-02T08:33:45.815Z,5.13
2017-08-02T08:36:13.392Z,5.67
2017-08-02T08:38:40.967Z,7.67
2017-08-02T08:41:09.305Z,5.83
2017-08-02T08:43:36.885Z,5.43
2017-08-02T08:46:04.737Z,5.40
2017-08-02T08:48:32.297Z,5.23
2017-08-02T08:50:59.861Z,5.80
2017-08-02T08:53:27.449Z,5.97
2017-08-02T08:55:55.020Z,6.00
2017-08-02T08:58:22.629Z,6.17
2017-08-02T09:00:50.188Z,5.87
2017-08-02T09:03:17.772Z,6.33
2017-08-02T09:05:45.346Z,5.97
2017-08-02T09:08:13.691Z,6.10
2017-08-02T09:10:41.293Z,6.47
2017-08-02T09:13:08.866Z,6.10
2017-08-02T09:15:36.449Z,6.40
2017-08-02T09:18:04.429Z,6.00
2017-08-02T09:20:31.992Z,6.60
2017-08-02T09:22:59.582Z,6.50
2017-08-02T09:25:27.186Z,6.00
2017-08-02T09:27:54.853Z,6.47
2017-08-02T09:30:22.547Z,5.73
2017-08-02T09:32:50.118Z,6.20
2017-08-02T09:35:17.702Z,5.93
2017-08-02T09:37:45.298Z,6.27
2017-08-02T09:40:13.270Z,5.83
2017-08-02T09:42:40.833Z,6.43
2017-08-02T09:45:08.393Z,5.33
2017-08-02T09:47:35.976Z,6.00
2017-08-02T09:50:03.552Z,6.40
2017-08-02T09:52:31.163Z,6.50
2017-08-02T09:54:58.749Z,8.83
2017-08-02T09:57:26.357Z,5.17
2017-08-02T09:59:53.941Z,5.80
2017-08-02T10:02:21.554Z,5.63
2017-08-02T10:04:49.168Z,7.13
2017-08-02T10:07:16.744Z,5.53
2017-08-02T10:09:44.320Z,5.97
2017-08-02T10:12:12.760Z,4.60
2017-08-02T10:14:40.334Z,5.33
2017-08-02T10:17:07.904Z,5.17
2017-08-02T10:19:35.479Z,6.50
2017-08-02T10:22:03.818Z,6.00
2017-08-02T10:24:31.821Z,5.70
2017-08-02T10:26:59.384Z,5.90
2017-08-02T10:29:27.725Z,6.13
2017-08-02T10:31:55.314Z,5.73
2017-08-02T10:34:22.887Z,6.00
2017-08-02T10:36:50.503Z,6.03
2017-08-02T10:39:18.061Z,5.20
2017-08-02T10:41:45.943Z,5.97
2017-08-02T10:44:13.833Z,5.70
2017-08-02T10:46:41.718Z,6.43
2017-08-02T10:49:09.305Z,8.77
2017-08-02T10:51:36.893Z,6.90
2017-08-02T10:54:04.489Z,5.93
2017-08-02T10:56:32.311Z,5.27
2017-08-02T10:59:00.146Z,5.87
2017-08-02T11:01:27.702Z,5.97
2017-08-02T11:03:55.284Z,8.43
2017-08-02T11:06:22.835Z,5.60
2017-08-02T11:08:50.446Z,5.97
2017-08-02T11:11:18.003Z,5.77
2017-08-02T11:13:45.941Z,6.23
2017-08-02T11:16:13.497Z,6.90
2017-08-02T11:18:41.069Z,6.33
2017-08-02T11:21:08.653Z,8.10
2017-08-02T11:23:36.225Z,6.40
2017-08-02T11:26:03.827Z,6.57
2017-08-02T11:28:31.461Z,6.37
2017-08-02T11:30:59.121Z,7.40
2017-08-02T11:33:26.698Z,8.43
2017-08-02T11:35:54.585Z,6.73
2017-08-02T11:38:22.148Z,5.90
2017-08-02T11:40:49.721Z,7.10
2017-08-02T11:43:18.103Z,10.50
2017-08-02T11:45:46.450Z,8.43
2017-08-02T11:48:14.021Z,7.47
2017-08-02T11:50:41.596Z,6.03
2017-08-02T11:53:09.966Z,6.37
2017-08-02T11:55:37.547Z,7.93
2017-08-02T11:58:05.457Z,7.10
2017-08-02T12:00:33.033Z,7.83
2017-08-02T12:03:00.593Z,8.07
2017-08-02T12:05:28.162Z,8.17
2017-08-02T12:07:55.728Z,6.07
2017-08-02T12:10:24.095Z,9.80
2017-08-02T12:12:51.696Z,7.10
2017-08-02T12:15:19.374Z,7.40
2017-08-02T12:17:46.951Z,14.70
2017-08-02T12:20:14.977Z,8.57
2017-08-02T12:22:42.601Z,6.80
2017-08-02T12:25:10.212Z,10.03
2017-08-02T12:27:37.801Z,11.43
2017-08-02T12:30:05.374Z,7.30
2017-08-02T12:32:32.985Z,8.23
2017-08-02T12:35:00.561Z,7.10
2017-08-02T12:37:28.166Z,7.87
2017-08-02T12:39:55.742Z,11.23
2017-08-02T12:42:23.631Z,9.00
2017-08-02T12:44:51.200Z,7.80
2017-08-02T12:47:18.767Z,7.23
2017-08-02T12:49:46.364Z,7.93
2017-08-02T12:52:13.976Z,10.63
2017-08-02T12:54:41.567Z,8.23
2017-08-02T12:57:09.176Z,7.23
2017-08-02T12:59:36.848Z,7.10
2017-08-02T13:02:04.447Z,7.80
2017-08-02T13:04:32.028Z,7.80
2017-08-02T13:07:00.383Z,7.40
2017-08-02T13:09:27.973Z,8.90
2017-08-02T13:11:56.314Z,7.73
2017-08-02T13:14:23.881Z,8.27
2017-08-02T13:16:51.456Z,8.30
2017-08-02T13:19:19.030Z,11.07
2017-08-02T13:21:46.609Z,7.83
2017-08-02T13:24:14.186Z,8.77
2017-08-02T13:26:41.745Z,8.63
2017-08-02T13:29:09.338Z,7.20
2017-08-02T13:31:36.919Z,8.10
2017-08-02T13:34:04.861Z,7.93
2017-08-02T13:36:32.446Z,10.47
2017-08-02T13:39:00.774Z,9.03
2017-08-02T13:41:28.367Z,6.97
2017-08-02T13:43:55.935Z,7.70
2017-08-02T13:46:24.283Z,8.67
2017-08-02T13:48:51.864Z,6.97
2017-08-02T13:51:19.449Z,6.30
2017-08-02T13:53:47.029Z,6.47
2017-08-02T13:56:14.936Z,10.80
2017-08-02T13:58:42.509Z,9.10
2017-08-02T14:01:10.123Z,11.23
2017-08-02T14:03:37.693Z,7.77
2017-08-02T14:06:05.247Z,8.00
2017-08-02T14:08:32.834Z,8.60
2017-08-02T14:11:00.396Z,9.10
2017-08-02T14:13:28.271Z,7.47
2017-08-02T14:15:55.848Z,9.47
2017-08-02T14:18:23.407Z,7.93
2017-08-02T14:20:51.749Z,7.27
2017-08-02T14:23:19.307Z,7.97
2017-08-02T14:25:47.151Z,8.17
2017-08-02T14:28:14.712Z,6.83
2017-08-02T14:30:42.303Z,8.07
2017-08-02T14:33:09.880Z,7.53
2017-08-02T14:35:37.497Z,8.53
2017-08-02T14:38:05.061Z,9.60
2017-08-02T14:40:32.638Z,12.43
2017-08-02T14:43:00.207Z,7.37
2017-08-02T14:45:28.543Z,7.07
2017-08-02T14:47:56.123Z,8.30
2017-08-02T14:50:23.712Z,7.63
2017-08-02T14:52:52.100Z,8.00
2017-08-02T14:55:19.691Z,10.43
2017-08-02T14:57:47.296Z,8.50
2017-08-02T15:00:15.694Z,8.97
2017-08-02T15:02:43.308Z,8.70
2017-08-02T15:05:10.917Z,7.47
2017-08-02T15:07:38.479Z,7.50
2017-08-02T15:10:06.044Z,7.63
2017-08-02T15:12:33.648Z,7.10
2017-08-02T15:15:01.228Z,8.43
2017-08-02T15:17:28.807Z,9.47
2017-08-02T15:19:56.373Z,8.27
2017-08-02T15:22:23.955Z,8.27
2017-08-02T15:24:51.534Z,8.40
2017-08-02T15:27:19.442Z,9.20
2017-08-02T15:29:47.019Z,7.53
2017-08-02T15:32:15.444Z,9.20
2017-08-02T15:34:43.022Z,9.20
2017-08-02T15:37:10.577Z,8.87
2017-08-02T15:39:38.167Z,8.40
2017-08-02T15:42:05.782Z,9.47
2017-08-02T15:44:33.370Z,7.87
2017-08-02T15:47:00.935Z,7.70
2017-08-02T15:49:28.910Z,8.30
2017-08-02T15:51:57.622Z,10.83
2017-08-02T15:54:25.195Z,8.60
2017-08-02T15:56:52.774Z,8.20
2017-08-02T15:59:20.347Z,7.53
2017-08-02T16:01:47.926Z,8.10
2017-08-02T16:04:15.485Z,7.50
2017-08-02T16:06:43.069Z,9.23
2017-08-02T16:09:10.641Z,7.70
2017-08-02T16:11:38.229Z,7.07
2017-08-02T16:14:05.819Z,10.10
2017-08-02T16:16:33.466Z,6.70
2017-08-02T16:19:01.018Z,7.17
2017-08-02T16:21:28.883Z,8.30
2017-08-02T16:23:56.446Z,8.70
2017-08-02T16:26:24.032Z,11.90
2017-08-02T16:28:52.380Z,8.20
2017-08-02T16:31:19.952Z,8.73
2017-08-02T16:33:47.545Z,9.53
2017-08-02T16:36:15.116Z,10.00
2017-08-02T16:38:42.694Z,6.53
2017-08-02T16:41:10.256Z,7.00
2017-08-02T16:43:38.136Z,7.90
2017-08-02T16:46:05.701Z,7.07
2017-08-02T16:48:33.285Z,9.97
2017-08-02T16:51:00.865Z,8.07
2017-08-02T16:53:29.186Z,8.03
2017-08-02T16:55:56.752Z,7.90
2017-08-02T16:58:24.332Z,8.20
2017-08-02T17:00:51.891Z,7.47
2017-08-02T17:03:19.481Z,8.77
2017-08-02T17:05:47.344Z,7.03
2017-08-02T17:08:15.689Z,8.00
2017-08-02T17:10:43.265Z,10.10
2017-08-02T17:13:11.616Z,9.00
2017-08-02T17:15:39.165Z,7.83
2017-08-02T17:18:06.742Z,10.27
2017-08-02T17:20:34.307Z,8.17
2017-08-02T17:23:02.257Z,8.57
2017-08-02T17:25:29.809Z,9.30
2017-08-02T17:27:57.396Z,8.10
2017-08-02T17:30:25.745Z,8.03
2017-08-02T17:32:53.515Z,9.60
2017-08-02T17:35:21.110Z,7.33
2017-08-02T17:37:49.458Z,8.53
2017-08-02T17:40:17.052Z,7.87
2017-08-02T17:42:45.374Z,7.33
2017-08-02T17:45:13.361Z,14.50
2017-08-02T17:47:40.912Z,8.97
2017-08-02T17:50:08.485Z,10.60
2017-08-02T17:52:36.063Z,8.67
2017-08-02T17:55:03.659Z,10.50
2017-08-02T17:57:31.271Z,7.77
2017-08-02T17:59:59.604Z,9.17
2017-08-02T18:02:27.198Z,9.23
2017-08-02T18:04:55.555Z,8.13
2017-08-02T18:07:23.171Z,15.60
2017-08-02T18:09:50.751Z,8.57
2017-08-02T18:12:18.619Z,6.63
2017-08-02T18:14:46.201Z,8.70
2017-08-02T18:17:13.765Z,10.07
2017-08-02T18:19:41.418Z,9.63
2017-08-02T18:22:09.028Z,13.97
2017-08-02T18:24:36.683Z,18.83
2017-08-02T18:27:04.308Z,16.87
2017-08-02T18:29:31.921Z,28.13
2017-08-02T18:31:59.562Z,20.50
2017-08-02T18:34:27.183Z,18.60
2017-08-02T18:36:54.752Z,13.70
2017-08-02T18:39:22.710Z,12.43
2017-08-02T18:41:50.304Z,11.00
2017-08-02T18:44:17.894Z,10.20
2017-08-02T18:46:45.475Z,12.27
2017-08-02T18:49:13.132Z,11.80
2017-08-02T18:51:40.724Z,10.07
2017-08-02T18:54:08.307Z,12.37
2017-08-02T18:56:35.905Z,12.07
2017-08-02T18:59:03.532Z,13.33
2017-08-02T19:01:31.529Z,11.73
2017-08-02T19:03:59.262Z,12.10
2017-08-02T19:06:26.855Z,15.57
2017-08-02T19:08:54.435Z,18.57
2017-08-02T19:11:22.376Z,20.50
2017-08-02T19:13:49.972Z,18.00
2017-08-02T19:16:17.563Z,15.70
2017-08-02T19:18:45.311Z,15.83
2017-08-02T19:21:12.940Z,16.77
2017-08-02T19:23:40.982Z,14.60
2017-08-02T19:26:08.558Z,14.73
2017-08-02T19:28:36.243Z,11.77
2017-08-02T19:31:03.870Z,12.33
2017-08-02T19:33:31.533Z,13.17
2017-08-02T19:35:59.169Z,13.20
2017-08-02T19:38:26.749Z,19.37
2017-08-02T19:40:54.341Z,12.77
2017-08-02T19:43:22.042Z,11.23
2017-08-02T19:45:50.669Z,12.53
2017-08-02T19:48:18.259Z,12.07
2017-08-02T19:50:45.842Z,12.23
2017-08-02T19:53:14.198Z,13.63
2017-08-02T19:55:42.559Z,12.47
2017-08-02T19:58:10.221Z,13.17
2017-08-02T20:00:38.608Z,12.87
2017-08-02T20:03:06.198Z,14.47
2017-08-02T20:05:33.821Z,12.10
2017-08-02T20:08:01.737Z,13.10
2017-08-02T20:10:29.341Z,11.47
2017-08-02T20:12:56.939Z,13.63
2017-08-02T20:15:25.356Z,12.80
2017-08-02T20:17:52.951Z,11.67
2017-08-02T20:20:20.570Z,14.00
2017-08-02T20:22:50.839Z,13.43
2017-08-02T20:25:18.442Z,11.73
2017-08-02T20:27:46.027Z,10.80
2017-08-02T20:30:13.643Z,10.73
2017-08-02T20:32:41.987Z,11.33
2017-08-02T20:35:09.583Z,10.70
2017-08-02T20:37:37.161Z,12.37
2017-08-02T20:40:04.776Z,13.03
2017-08-02T20:42:33.162Z,12.10
2017-08-02T20:45:00.779Z,11.03
2017-08-02T20:47:28.352Z,11.40
2017-08-02T20:49:56.210Z,9.33
2017-08-02T20:52:23.836Z,11.03
2017-08-02T20:54:51.397Z,11.43
2017-08-02T20:57:19.346Z,11.20
2017-08-02T20:59:46.919Z,13.10
2017-08-02T21:02:14.503Z,11.00
2017-08-02T21:04:42.080Z,13.23
2017-08-02T21:07:09.796Z,14.43
2017-08-02T21:09:37.392Z,10.63
2017-08-02T21:12:04.968Z,12.30
2017-08-02T21:14:32.808Z,12.50
2017-08-02T21:17:00.397Z,11.97
2017-08-02T21:19:28.105Z,10.30
2017-08-02T21:21:55.779Z,11.43
2017-08-02T21:24:23.349Z,13.40
2017-08-02T21:26:50.938Z,11.70
2017-08-02T21:29:18.491Z,10.43
2017-08-02T21:31:46.342Z,10.57
2017-08-02T21:34:13.922Z,15.43
2017-08-02T21:36:41.506Z,11.17
2017-08-02T21:39:09.090Z,15.43
2017-08-02T21:41:36.723Z,9.70
2017-08-02T21:44:05.086Z,15.77
2017-08-02T21:46:33.440Z,11.17
2017-08-02T21:49:01.050Z,10.70
2017-08-02T21:51:28.617Z,10.03
2017-08-02T21:53:56.211Z,11.40
2017-08-02T21:56:23.824Z,11.50
2017-08-02T21:58:51.732Z,12.20
2017-08-02T22:01:31.141Z,12.57
2017-08-02T22:03:59.003Z,11.33
2017-08-02T22:06:26.580Z,14.60
2017-08-02T22:08:54.167Z,11.00
2017-08-02T22:11:21.751Z,11.80
2017-08-02T22:13:50.092Z,11.27
2017-08-02T22:16:17.770Z,10.77
2017-08-02T22:18:45.357Z,13.77
2017-08-02T22:21:12.922Z,10.67
2017-08-02T22:23:41.265Z,11.00
2017-08-02T22:26:08.853Z,11.60
2017-08-02T22:28:37.380Z,11.17
2017-08-02T22:31:05.268Z,12.83
2017-08-02T22:33:33.624Z,11.47
2017-08-02T22:36:01.197Z,11.53
2017-08-02T22:38:28.803Z,12.30
2017-08-02T22:40:56.407Z,13.77
2017-08-02T22:43:23.996Z,10.33
2017-08-02T22:45:52.506Z,13.37
2017-08-02T22:48:20.086Z,11.47
2017-08-02T22:50:47.718Z,14.40
2017-08-02T22:53:15.307Z,12.67
2017-08-02T22:55:42.883Z,11.63
2017-08-02T22:58:10.463Z,12.97
2017-08-02T23:00:38.043Z,11.10
2017-08-02T23:03:05.997Z,12.53
2017-08-02T23:05:33.564Z,10.37
2017-08-02T23:08:01.130Z,10.77
2017-08-02T23:10:28.757Z,10.53
2017-08-02T23:12:56.509Z,11.37
2017-08-02T23:15:24.184Z,11.27
2017-08-02T23:17:51.773Z,10.30
2017-08-02T23:20:19.330Z,10.30
2017-08-02T23:22:46.901Z,9.40
2017-08-02T23:25:14.501Z,13.20
2017-08-02T23:27:42.058Z,17.83
2017-08-02T23:30:09.970Z,9.83
2017-08-02T23:32:37.535Z,10.30
2017-08-02T23:35:05.154Z,10.60
2017-08-02T23:37:32.742Z,9.70
2017-08-02T23:40:00.314Z,10.17
2017-08-02T23:42:27.896Z,10.97
2017-08-02T23:44:56.317Z,9.70
2017-08-02T23:47:23.932Z,10.43
2017-08-02T23:49:51.521Z,11.13
2017-08-02T23:52:19.426Z,10.83
2017-08-02T23:54:47.005Z,10.17
2017-08-02T23:57:14.724Z,10.33
2017-08-02T23:59:42.312Z,14.00
